createdAt,value
2018-04-15T00:01:10.994Z,89.03
2018-04-15T00:03:39.676Z,81.20
2018-04-15T00:06:08.067Z,81.53
2018-04-15T00:08:36.714Z,79.37
2018-04-15T00:11:05.706Z,80.73
2018-04-15T00:13:35.193Z,85.40
2018-04-15T00:16:04.712Z,80.30
2018-04-15T00:18:35.095Z,90.40
2018-04-15T00:21:03.377Z,88.60
2018-04-15T00:23:32.655Z,72.57
2018-04-15T00:26:01.634Z,79.93
2018-04-15T00:28:31.935Z,84.90
2018-04-15T00:31:02.215Z,75.47
2018-04-15T00:33:31.290Z,81.77
2018-04-15T00:36:00.994Z,81.87
2018-04-15T00:38:29.596Z,76.43
2018-04-15T00:40:58.595Z,83.17
2018-04-15T00:43:27.094Z,74.17
2018-04-15T00:45:55.554Z,83.00
2018-04-15T00:48:23.966Z,70.20
2018-04-15T00:50:52.262Z,88.13
2018-04-15T00:53:21.983Z,83.20
2018-04-15T00:55:51.267Z,68.63
2018-04-15T00:58:20.322Z,73.77
2018-04-15T01:00:48.590Z,68.97
2018-04-15T01:03:16.962Z,64.40
2018-04-15T01:05:47.597Z,67.90
2018-04-15T01:08:15.866Z,63.97
2018-04-15T01:10:44.383Z,52.60
2018-04-15T01:13:13.915Z,61.73
2018-04-15T01:15:42.318Z,69.20
2018-04-15T01:18:12.231Z,76.00
2018-04-15T01:20:41.300Z,64.30
2018-04-15T01:23:10.374Z,70.77
2018-04-15T01:25:38.659Z,77.40
2018-04-15T01:28:06.923Z,54.07
2018-04-15T01:30:35.304Z,59.67
2018-04-15T01:33:03.874Z,63.40
2018-04-15T01:35:32.255Z,61.60
2018-04-15T01:38:00.532Z,64.67
2018-04-15T01:40:29.146Z,62.00
2018-04-15T01:42:57.698Z,65.30
2018-04-15T01:45:26.066Z,71.37
2018-04-15T01:47:54.353Z,66.73
2018-04-15T01:50:22.642Z,72.57
2018-04-15T01:52:50.920Z,56.60
2018-04-15T01:55:21.319Z,69.70
2018-04-15T01:57:49.608Z,66.50
2018-04-15T02:00:18.475Z,62.97
2018-04-15T02:02:47.723Z,68.53
2018-04-15T02:05:16.950Z,79.60
2018-04-15T02:07:45.639Z,62.33
2018-04-15T02:10:14.418Z,64.13
2018-04-15T02:12:44.048Z,70.07
2018-04-15T02:15:12.364Z,75.93
2018-04-15T02:17:40.668Z,74.40
2018-04-15T02:20:09.463Z,73.37
2018-04-15T02:22:38.051Z,81.70
2018-04-15T02:25:06.430Z,79.00
2018-04-15T02:27:34.838Z,69.70
2018-04-15T02:30:03.345Z,64.47
2018-04-15T02:32:32.487Z,56.63
2018-04-15T02:35:00.862Z,73.40
2018-04-15T02:37:29.142Z,60.23
2018-04-15T02:39:58.871Z,72.23
2018-04-15T02:42:27.435Z,80.03
2018-04-15T02:44:56.459Z,77.80
2018-04-15T02:47:24.842Z,81.70
2018-04-15T02:49:53.107Z,67.93
2018-04-15T02:52:21.859Z,75.87
2018-04-15T02:54:50.262Z,75.70
2018-04-15T02:57:19.053Z,77.57
2018-04-15T02:59:47.362Z,78.07
2018-04-15T03:02:15.785Z,87.00
2018-04-15T03:04:44.094Z,84.70
2018-04-15T03:07:12.477Z,84.03
2018-04-15T03:09:40.859Z,79.13
2018-04-15T03:12:09.991Z,83.77
2018-04-15T03:14:39.368Z,70.97
2018-04-15T03:17:09.202Z,55.63
2018-04-15T03:19:38.586Z,47.30
2018-04-15T03:22:06.854Z,60.37
2018-04-15T03:24:35.175Z,62.33
2018-04-15T03:27:04.232Z,74.17
2018-04-15T03:29:32.537Z,68.13
2018-04-15T03:32:00.830Z,73.43
2018-04-15T03:34:30.070Z,55.27
2018-04-15T03:37:00.073Z,58.53
2018-04-15T03:39:28.348Z,58.13
2018-04-15T03:41:56.650Z,61.40
2018-04-15T03:44:24.966Z,63.43
2018-04-15T03:46:53.738Z,63.37
2018-04-15T03:49:25.809Z,69.50
2018-04-15T03:51:54.362Z,59.00
2018-04-15T03:54:23.401Z,68.13
2018-04-15T03:56:52.249Z,71.17
2018-04-15T03:59:20.885Z,66.67
2018-04-15T04:01:50.530Z,80.63
2018-04-15T04:04:19.053Z,76.13
2018-04-15T04:06:49.069Z,70.93
2018-04-15T04:09:17.556Z,76.20
2018-04-15T04:11:47.317Z,71.83
2018-04-15T04:14:15.952Z,73.33
2018-04-15T04:16:44.233Z,68.70
2018-04-15T04:22:52.712Z,61.57
2018-04-15T04:25:30.234Z,59.17
2018-04-15T04:27:58.719Z,49.63
2018-04-15T04:30:27.814Z,54.50
2018-04-15T04:32:56.082Z,48.70
2018-04-15T04:35:25.125Z,36.20
2018-04-15T04:37:53.675Z,29.80
2018-04-15T04:40:22.799Z,41.43
2018-04-15T04:42:51.147Z,32.97
2018-04-15T04:45:19.527Z,52.70
2018-04-15T04:47:47.822Z,66.00
2018-04-15T04:50:17.146Z,60.77
2018-04-15T04:52:45.495Z,36.20
2018-04-15T04:55:14.575Z,43.17
2018-04-15T04:57:44.232Z,39.47
2018-04-15T05:00:12.883Z,34.13
2018-04-15T05:02:42.110Z,40.63
2018-04-15T05:05:11.019Z,43.20
2018-04-15T05:07:40.545Z,44.83
2018-04-15T05:10:11.074Z,51.00
2018-04-15T05:12:40.503Z,50.40
2018-04-15T05:15:08.776Z,48.40
2018-04-15T05:17:37.043Z,54.87
2018-04-15T05:20:05.678Z,65.43
2018-04-15T05:22:34.022Z,67.43
2018-04-15T05:25:02.336Z,53.90
2018-04-15T05:27:30.630Z,54.90
2018-04-15T05:29:59.027Z,52.47
2018-04-15T05:32:29.296Z,90.83
2018-04-15T05:34:57.607Z,47.90
2018-04-15T05:37:25.891Z,62.00
2018-04-15T05:39:54.383Z,66.83
2018-04-15T05:42:23.202Z,56.80
2018-04-15T05:44:52.108Z,49.40
2018-04-15T05:47:20.714Z,70.37
2018-04-15T05:49:49.430Z,60.03
2018-04-15T05:52:17.757Z,51.67
2018-04-15T05:54:46.175Z,67.20
2018-04-15T05:57:14.450Z,56.07
2018-04-15T05:59:43.052Z,72.23
2018-04-15T06:02:11.365Z,56.70
2018-04-15T06:04:40.158Z,55.30
2018-04-15T06:07:09.002Z,65.63
2018-04-15T06:09:37.550Z,66.60
2018-04-15T06:12:06.564Z,68.90
2018-04-15T06:14:35.218Z,61.70
2018-04-15T06:17:04.554Z,61.87
2018-04-15T06:19:33.275Z,71.23
2018-04-15T06:22:01.562Z,63.40
2018-04-15T06:24:30.820Z,62.30
2018-04-15T06:26:59.120Z,72.00
2018-04-15T06:29:28.168Z,66.50
2018-04-15T06:31:56.550Z,64.63
2018-04-15T06:34:25.782Z,65.23
2018-04-15T06:36:54.885Z,53.43
2018-04-15T06:39:23.750Z,61.37
2018-04-15T06:41:52.902Z,58.00
2018-04-15T06:44:22.862Z,62.27
2018-04-15T06:46:52.390Z,53.90
2018-04-15T06:49:20.684Z,53.73
2018-04-15T06:51:48.960Z,60.67
2018-04-15T06:54:17.865Z,65.83
2018-04-15T06:56:46.150Z,58.73
2018-04-15T06:59:15.298Z,63.93
2018-04-15T07:01:44.435Z,56.07
2018-04-15T07:04:13.024Z,53.90
2018-04-15T07:06:42.110Z,52.80
2018-04-15T07:09:10.802Z,56.50
2018-04-15T07:11:39.885Z,54.60
2018-04-15T07:14:08.159Z,47.50
2018-04-15T07:16:36.482Z,51.50
2018-04-15T07:19:05.736Z,46.30
2018-04-15T07:21:34.050Z,54.80
2018-04-15T07:24:03.083Z,50.90
2018-04-15T07:26:33.549Z,49.73
2018-04-15T07:29:02.346Z,52.23
2018-04-15T07:31:30.663Z,48.97
2018-04-15T07:33:59.268Z,50.00
2018-04-15T07:36:28.408Z,46.10
2018-04-15T07:38:56.675Z,48.57
2018-04-15T07:41:24.970Z,56.23
2018-04-15T07:43:54.567Z,47.57
2018-04-15T07:46:23.357Z,53.47
2018-04-15T07:48:56.547Z,55.33
2018-04-15T07:51:24.899Z,49.07
2018-04-15T07:53:53.491Z,56.37
2018-04-15T07:56:22.739Z,51.40
2018-04-15T07:58:52.084Z,59.60
2018-04-15T08:01:21.175Z,55.33
2018-04-15T08:03:49.462Z,54.90
2018-04-15T08:06:17.754Z,52.67
2018-04-15T08:08:46.771Z,53.27
2018-04-15T08:11:15.075Z,56.10
2018-04-15T08:13:44.021Z,50.57
2018-04-15T08:16:12.314Z,54.10
2018-04-15T08:18:40.651Z,46.70
2018-04-15T08:21:09.740Z,53.10
2018-04-15T08:23:38.014Z,55.97
2018-04-15T08:26:06.411Z,56.73
2018-04-15T08:28:34.723Z,57.90
2018-04-15T08:31:03.032Z,56.90
2018-04-15T08:33:32.075Z,56.33
2018-04-15T08:36:00.386Z,50.80
2018-04-15T08:38:28.787Z,55.07
2018-04-15T08:40:57.314Z,48.90
2018-04-15T08:43:26.000Z,57.90
2018-04-15T08:45:54.321Z,57.80
2018-04-15T08:48:23.410Z,51.90
2018-04-15T08:50:51.706Z,56.27
2018-04-15T08:53:22.375Z,54.03
2018-04-15T08:55:52.227Z,49.40
2018-04-15T08:58:20.501Z,57.40
2018-04-15T09:00:49.256Z,52.33
2018-04-15T09:03:18.299Z,53.17
2018-04-15T09:05:46.578Z,50.50
2018-04-15T09:08:15.035Z,53.80
2018-04-15T09:10:45.730Z,54.33
2018-04-15T09:13:14.015Z,56.00
2018-04-15T09:15:42.387Z,55.70
2018-04-15T09:18:10.720Z,54.73
2018-04-15T09:20:38.961Z,53.63
2018-04-15T09:23:07.267Z,54.30
2018-04-15T09:25:36.605Z,57.43
2018-04-15T09:28:05.762Z,53.60
2018-04-15T09:30:39.542Z,53.03
2018-04-15T09:33:08.301Z,50.77
2018-04-15T09:35:38.266Z,54.10
2018-04-15T09:38:07.490Z,53.80
2018-04-15T09:40:35.888Z,52.73
2018-04-15T09:43:04.954Z,51.27
2018-04-15T09:45:33.335Z,55.80
2018-04-15T09:48:01.659Z,53.37
2018-04-15T09:50:30.728Z,55.10
2018-04-15T09:52:59.067Z,53.00
2018-04-15T09:55:28.184Z,56.20
2018-04-15T09:57:56.474Z,54.17
2018-04-15T10:00:24.774Z,58.73
2018-04-15T10:02:53.915Z,54.63
2018-04-15T10:05:22.241Z,57.27
2018-04-15T10:07:52.062Z,55.87
2018-04-15T10:10:21.396Z,55.90
2018-04-15T10:12:49.691Z,57.00
2018-04-15T10:15:18.691Z,53.17
2018-04-15T10:17:47.534Z,57.13
2018-04-15T10:20:21.114Z,50.50
2018-04-15T10:22:49.682Z,57.50
2018-04-15T10:25:17.967Z,61.23
2018-04-15T10:27:46.844Z,55.57
2018-04-15T10:30:15.850Z,57.37
2018-04-15T10:32:44.232Z,57.87
2018-04-15T10:35:12.606Z,55.83
2018-04-15T10:37:41.616Z,54.07
2018-04-15T10:40:09.901Z,50.93
2018-04-15T10:42:38.233Z,51.83
2018-04-15T10:45:06.626Z,48.47
2018-04-15T10:47:35.239Z,48.97
2018-04-15T10:50:03.592Z,50.07
2018-04-15T10:52:31.882Z,47.27
2018-04-15T10:55:00.378Z,49.80
2018-04-15T10:57:29.552Z,48.63
2018-04-15T10:59:58.075Z,51.83
2018-04-15T11:02:27.958Z,48.37
2018-04-15T11:04:57.669Z,47.43
2018-04-15T11:07:26.672Z,48.17
2018-04-15T11:09:55.004Z,49.90
2018-04-15T11:12:23.310Z,47.00
2018-04-15T11:14:51.699Z,44.23
2018-04-15T11:17:20.168Z,44.70
2018-04-15T11:19:48.451Z,46.60
2018-04-15T11:22:17.026Z,46.87
2018-04-15T11:24:46.182Z,51.40
2018-04-15T11:27:15.739Z,50.33
2018-04-15T11:29:44.069Z,45.50
2018-04-15T11:32:13.107Z,49.47
2018-04-15T11:34:41.482Z,46.80
2018-04-15T11:37:09.770Z,48.47
2018-04-15T11:39:38.060Z,45.77
2018-04-15T11:42:06.452Z,44.57
2018-04-15T11:44:34.703Z,45.07
2018-04-15T11:47:02.984Z,46.37
2018-04-15T11:49:31.287Z,44.07
2018-04-15T11:51:59.919Z,47.00
2018-04-15T11:54:28.210Z,46.17
2018-04-15T11:56:56.720Z,42.07
2018-04-15T11:59:25.010Z,43.50
2018-04-15T12:01:53.590Z,50.50
2018-04-15T12:04:21.893Z,48.33
2018-04-15T12:06:50.946Z,43.57
2018-04-15T12:09:19.282Z,43.70
2018-04-15T12:11:47.921Z,46.93
2018-04-15T12:14:16.574Z,45.50
2018-04-15T12:16:44.895Z,41.20
2018-04-15T12:19:13.391Z,41.17
2018-04-15T12:21:42.331Z,40.10
2018-04-15T12:24:10.725Z,42.20
2018-04-15T12:26:39.015Z,42.10
2018-04-15T12:29:07.830Z,40.87
2018-04-15T12:31:36.131Z,44.83
2018-04-15T12:34:05.557Z,43.93
2018-04-15T12:36:33.839Z,39.47
2018-04-15T12:39:02.171Z,43.37
2018-04-15T12:41:30.959Z,40.43
2018-04-15T12:44:00.056Z,40.77
2018-04-15T12:46:28.897Z,43.03
2018-04-15T12:48:57.184Z,42.23
2018-04-15T12:51:25.806Z,37.73
2018-04-15T12:53:54.099Z,43.47
2018-04-15T12:56:23.179Z,44.17
2018-04-15T12:58:51.527Z,42.03
2018-04-15T13:01:19.814Z,46.87
2018-04-15T13:03:48.179Z,44.33
2018-04-15T13:06:16.663Z,46.63
2018-04-15T13:08:45.772Z,45.37
2018-04-15T13:11:15.809Z,45.13
2018-04-15T13:13:45.238Z,44.10
2018-04-15T13:16:15.370Z,44.20
2018-04-15T13:18:44.436Z,41.63
2018-04-15T13:21:12.707Z,39.70
2018-04-15T13:23:41.093Z,41.17
2018-04-15T13:26:10.551Z,45.50
2018-04-15T13:28:38.859Z,42.07
2018-04-15T13:31:07.136Z,44.70
2018-04-15T13:33:35.607Z,47.10
2018-04-15T13:36:03.903Z,46.60
2018-04-15T13:38:32.700Z,49.73
2018-04-15T13:41:01.064Z,47.03
2018-04-15T13:43:29.450Z,43.57
2018-04-15T13:45:58.207Z,43.73
2018-04-15T13:48:26.510Z,44.80
2018-04-15T13:50:54.795Z,43.80
2018-04-15T13:53:23.158Z,50.50
2018-04-15T13:55:52.174Z,49.17
2018-04-15T13:58:20.467Z,44.20
2018-04-15T14:00:48.742Z,44.30
2018-04-15T14:03:17.151Z,44.87
2018-04-15T14:05:45.434Z,45.40
2018-04-15T14:08:13.806Z,47.90
2018-04-15T14:10:43.046Z,43.97
2018-04-15T14:13:12.125Z,43.27
2018-04-15T14:15:40.419Z,43.83
2018-04-15T14:18:08.738Z,41.93
2018-04-15T14:20:37.035Z,45.03
2018-04-15T14:23:06.098Z,39.73
2018-04-15T14:25:34.763Z,43.27
2018-04-15T14:28:03.038Z,41.97
2018-04-15T14:30:32.152Z,42.90
2018-04-15T14:33:00.639Z,42.90
2018-04-15T14:35:28.947Z,41.07
2018-04-15T14:37:57.235Z,41.43
2018-04-15T14:40:27.153Z,49.80
2018-04-15T14:42:55.734Z,43.77
2018-04-15T14:45:25.311Z,40.80
2018-04-15T14:47:55.081Z,40.60
2018-04-15T14:50:23.362Z,42.00
2018-04-15T14:52:53.168Z,42.17
2018-04-15T14:55:21.454Z,38.53
2018-04-15T14:57:50.996Z,42.10
2018-04-15T15:00:19.491Z,39.73
2018-04-15T15:02:47.847Z,34.53
2018-04-15T15:05:16.747Z,41.07
2018-04-15T15:07:45.122Z,40.03
2018-04-15T15:10:13.703Z,43.87
2018-04-15T15:12:41.983Z,36.50
2018-04-15T15:15:10.306Z,42.20
2018-04-15T15:17:39.473Z,43.17
2018-04-15T15:20:08.008Z,38.03
2018-04-15T15:22:36.336Z,38.80
2018-04-15T15:25:05.535Z,38.53
2018-04-15T15:27:33.808Z,39.97
2018-04-15T15:30:02.599Z,40.37
2018-04-15T15:32:30.935Z,41.70
2018-04-15T15:34:59.218Z,38.70
2018-04-15T15:37:28.939Z,42.23
2018-04-15T15:39:57.244Z,41.57
2018-04-15T15:42:25.548Z,44.73
2018-04-15T15:44:54.902Z,36.30
2018-04-15T15:47:23.975Z,41.10
2018-04-15T15:49:52.858Z,42.10
2018-04-15T15:52:21.140Z,40.73
2018-04-15T15:54:49.429Z,41.53
2018-04-15T15:57:17.743Z,40.50
2018-04-15T15:59:46.018Z,45.57
2018-04-15T16:02:14.400Z,38.13
2018-04-15T16:04:42.779Z,42.50
2018-04-15T16:07:11.061Z,42.63
2018-04-15T16:09:39.400Z,42.30
2018-04-15T16:12:08.007Z,40.27
2018-04-15T16:14:36.320Z,40.90
2018-04-15T16:17:04.975Z,40.97
2018-04-15T16:19:33.275Z,38.83
2018-04-15T16:22:02.362Z,40.93
2018-04-15T16:24:30.683Z,40.30
2018-04-15T16:27:00.173Z,39.47
2018-04-15T16:29:30.166Z,38.13
2018-04-15T16:31:59.458Z,43.33
2018-04-15T16:34:27.751Z,39.40
2018-04-15T16:36:56.077Z,38.23
2018-04-15T16:39:25.933Z,36.27
2018-04-15T16:41:54.851Z,41.23
2018-04-15T16:44:24.153Z,39.33
2018-04-15T16:46:54.346Z,41.13
2018-04-15T16:49:22.976Z,41.77
2018-04-15T16:51:52.305Z,40.70
2018-04-15T16:54:20.615Z,39.17
2018-04-15T16:56:48.899Z,37.57
2018-04-15T16:59:17.545Z,39.50
2018-04-15T17:01:46.632Z,32.93
2018-04-15T17:04:14.937Z,34.83
2018-04-15T17:06:43.668Z,37.33
2018-04-15T17:09:11.972Z,37.33
2018-04-15T17:11:40.274Z,37.60
2018-04-15T17:14:08.584Z,37.00
2018-04-15T17:16:37.912Z,37.07
2018-04-15T17:19:07.834Z,38.47
2018-04-15T17:21:36.885Z,36.87
2018-04-15T17:24:05.333Z,39.17
2018-04-15T17:26:36.688Z,39.33
2018-04-15T17:29:05.092Z,40.13
2018-04-15T17:31:33.531Z,39.80
2018-04-15T17:34:02.899Z,40.07
2018-04-15T17:36:31.227Z,35.60
2018-04-15T17:38:59.515Z,36.70
2018-04-15T17:41:27.935Z,43.83
2018-04-15T17:43:57.280Z,41.87
2018-04-15T17:46:25.570Z,38.03
2018-04-15T17:48:54.278Z,37.20
2018-04-15T17:51:22.589Z,34.90
2018-04-15T17:53:50.936Z,38.70
2018-04-15T17:56:20.207Z,38.00
2018-04-15T17:58:48.517Z,39.00
2018-04-15T18:01:16.874Z,37.57
2018-04-15T18:03:45.197Z,43.57
2018-04-15T18:06:14.259Z,37.80
2018-04-15T18:08:42.870Z,40.67
2018-04-15T18:11:11.201Z,33.47
2018-04-15T18:13:40.683Z,40.63
2018-04-15T18:16:11.246Z,37.90
2018-04-15T18:18:39.777Z,38.70
2018-04-15T18:21:09.560Z,42.77
2018-04-15T18:23:38.131Z,38.00
2018-04-15T18:26:06.431Z,36.50
2018-04-15T18:28:34.731Z,40.60
2018-04-15T18:31:04.857Z,38.07
2018-04-15T18:33:33.940Z,42.23
2018-04-15T18:36:02.240Z,44.43
2018-04-15T18:38:31.682Z,42.10
2018-04-15T18:41:00.104Z,44.70
2018-04-15T18:43:28.423Z,36.87
2018-04-15T18:45:56.830Z,39.97
2018-04-15T18:48:25.121Z,39.17
2018-04-15T18:50:53.475Z,32.70
2018-04-15T18:53:21.764Z,41.13
2018-04-15T18:55:50.050Z,40.47
2018-04-15T18:58:18.425Z,39.80
2018-04-15T19:00:47.022Z,41.00
2018-04-15T19:03:15.900Z,40.37
2018-04-15T19:05:44.212Z,41.57
2018-04-15T19:08:12.784Z,45.23
2018-04-15T19:10:41.235Z,43.00
2018-04-15T19:13:09.533Z,37.43
2018-04-15T19:15:38.576Z,39.47
2018-04-15T19:18:08.391Z,45.23
2018-04-15T19:20:38.223Z,40.60
2018-04-15T19:23:07.227Z,40.87
2018-04-15T19:25:35.515Z,41.00
2018-04-15T19:28:06.840Z,43.97
2018-04-15T19:30:35.893Z,42.20
2018-04-15T19:33:04.192Z,39.83
2018-04-15T19:35:32.524Z,39.70
2018-04-15T19:38:00.898Z,42.80
2018-04-15T19:40:29.256Z,43.37
2018-04-15T19:42:59.523Z,38.20
2018-04-15T19:45:27.811Z,41.90
2018-04-15T19:47:56.679Z,40.43
2018-04-15T19:50:25.020Z,36.83
2018-04-15T19:52:54.584Z,43.70
2018-04-15T19:55:22.878Z,40.37
2018-04-15T19:57:51.463Z,38.50
2018-04-15T20:00:19.853Z,35.27
2018-04-15T20:02:48.170Z,42.23
2018-04-15T20:05:16.689Z,41.60
2018-04-15T20:07:45.619Z,40.83
2018-04-15T20:10:14.678Z,42.20
2018-04-15T20:12:44.110Z,35.70
2018-04-15T20:15:15.288Z,39.70
2018-04-15T20:17:44.055Z,37.10
2018-04-15T20:20:13.865Z,37.40
2018-04-15T20:22:43.267Z,32.60
2018-04-15T20:25:13.344Z,36.70
2018-04-15T20:27:42.490Z,51.20
2018-04-15T20:30:12.050Z,54.00
2018-04-15T20:32:40.432Z,54.90
2018-04-15T20:35:08.722Z,59.43
2018-04-15T20:37:37.083Z,59.30
2018-04-15T20:40:06.279Z,52.33
2018-04-15T20:42:34.683Z,48.67
2018-04-15T20:45:02.973Z,53.77
2018-04-15T20:47:31.541Z,51.00
2018-04-15T20:49:59.820Z,54.70
2018-04-15T20:52:28.877Z,48.07
2018-04-15T20:54:57.531Z,38.97
2018-04-15T20:57:28.343Z,41.87
2018-04-15T20:59:56.634Z,39.40
2018-04-15T21:02:25.784Z,41.00
2018-04-15T21:04:54.315Z,26.17
2018-04-15T21:07:22.619Z,28.63
2018-04-15T21:09:51.667Z,37.00
2018-04-15T21:12:20.701Z,43.27
2018-04-15T21:14:49.759Z,54.43
2018-04-15T21:17:18.855Z,54.57
2018-04-15T21:19:48.184Z,56.87
2018-04-15T21:22:16.431Z,49.17
2018-04-15T21:24:44.708Z,50.60
2018-04-15T21:27:13.184Z,53.30
2018-04-15T21:29:41.459Z,51.63
2018-04-15T21:32:10.431Z,50.13
2018-04-15T21:34:39.371Z,50.53
2018-04-15T21:37:09.187Z,50.00
2018-04-15T21:39:38.518Z,48.73
2018-04-15T21:42:07.567Z,29.13
2018-04-15T21:44:36.739Z,33.27
2018-04-15T21:47:05.143Z,37.90
2018-04-15T21:49:33.634Z,39.03
2018-04-15T21:52:02.002Z,41.43
2018-04-15T21:54:30.602Z,62.77
2018-04-15T21:56:59.264Z,52.97
2018-04-15T21:59:28.570Z,56.67
2018-04-15T22:02:00.024Z,46.53
2018-04-15T22:04:28.519Z,49.63
2018-04-15T22:06:57.679Z,46.57
2018-04-15T22:09:26.826Z,56.20
2018-04-15T22:12:13.242Z,62.93
2018-04-15T22:14:41.674Z,74.13
2018-04-15T22:17:12.936Z,57.10
2018-04-15T22:19:41.436Z,58.30
2018-04-15T22:22:09.798Z,64.00
2018-04-15T22:24:38.070Z,65.97
2018-04-15T22:27:06.380Z,67.03
2018-04-15T22:29:34.639Z,63.40
2018-04-15T22:32:04.390Z,68.67
2018-04-15T22:34:32.626Z,69.27
2018-04-15T22:37:00.898Z,73.27
2018-04-15T22:39:29.174Z,68.43
2018-04-15T22:41:57.651Z,58.63
2018-04-15T22:44:26.369Z,69.33
2018-04-15T22:46:55.343Z,69.63
2018-04-15T22:49:23.672Z,84.20
2018-04-15T22:51:52.715Z,67.30
2018-04-15T22:54:21.895Z,43.17
2018-04-15T22:56:50.503Z,31.63
2018-04-15T22:59:18.899Z,40.03
2018-04-15T23:01:47.194Z,45.10
2018-04-15T23:04:16.279Z,43.00
2018-04-15T23:06:45.174Z,46.83
2018-04-15T23:09:13.439Z,57.23
2018-04-15T23:11:41.859Z,86.87
2018-04-15T23:14:11.823Z,77.50
2018-04-15T23:16:40.122Z,79.80
2018-04-15T23:19:08.464Z,71.37
2018-04-15T23:21:37.409Z,74.33
2018-04-15T23:24:06.490Z,66.40
2018-04-15T23:26:35.610Z,72.07
2018-04-15T23:29:05.170Z,82.50
2018-04-15T23:31:34.458Z,92.97
2018-04-15T23:34:02.754Z,105.93
2018-04-15T23:36:31.126Z,79.27
2018-04-15T23:38:59.571Z,62.03
2018-04-15T23:41:28.719Z,75.37
2018-04-15T23:43:57.009Z,65.10
2018-04-15T23:46:26.103Z,70.27
2018-04-15T23:48:55.157Z,65.90
2018-04-15T23:51:23.434Z,64.77
2018-04-15T23:53:53.470Z,55.43
2018-04-15T23:56:21.774Z,53.90
2018-04-15T23:58:50.324Z,56.83
